Time;durP1;ratioP1;P1;durP2;ratioP2;P2;SDS_P1;SDS_P2;PMS_P1;PMS_P2;Temp;Humidity;BMP_temperature;BMP_pressure;BME280_temperature;BME280_humidity;BME280_pressure;Samples;Min_cycle;Max_cycle;Signal;HPM_P1;HPM_P2
2022/07/18 00:02:02;;;;;;;44.97;42.53;;;;;;;21.26;29.72;97431.09;5071967;28;20208;-65
2022/07/18 00:04:28;;;;;;;38.50;36.22;;;;;;;21.22;30.08;97427.38;5072305;28;20189;-65
2022/07/18 00:06:54;;;;;;;28.27;26.83;;;;;;;21.13;30.17;97429.00;5072364;28;20318;-65
2022/07/18 00:09:22;;;;;;;18.25;17.35;;;;;;;21.19;30.47;97422.59;5073095;28;20657;-66
2022/07/18 00:11:47;;;;;;;21.02;19.98;;;;;;;21.22;30.48;97426.59;5072490;28;20729;-66
2022/07/18 00:14:13;;;;;;;38.50;36.53;;;;;;;21.19;30.67;97427.94;5072392;28;20267;-66
2022/07/18 00:16:38;;;;;;;47.90;45.50;;;;;;;21.07;30.79;97428.25;5073125;28;20630;-66
2022/07/18 00:19:04;;;;;;;45.75;42.55;;;;;;;20.94;31.13;97417.44;5071807;28;20182;-66
2022/07/18 00:21:29;;;;;;;43.65;41.47;;;;;;;20.91;31.29;97425.97;5072640;28;20543;-66
2022/07/18 00:23:55;;;;;;;33.97;32.22;;;;;;;20.90;31.51;97427.06;5072560;28;20181;-67
2022/07/18 00:26:20;;;;;;;26.08;24.52;;;;;;;20.80;31.82;97422.56;5072429;28;20613;-67
2022/07/18 00:28:46;;;;;;;22.77;21.63;;;;;;;20.74;32.35;97429.00;5072210;28;20187;-66
2022/07/18 00:31:11;;;;;;;44.88;42.60;;;;;;;20.90;31.68;97430.50;5054745;28;20238;-66
2022/07/18 00:33:36;;;;;;;67.03;63.67;;;;;;;20.77;31.59;97425.00;5072763;28;20224;-64
2022/07/18 00:36:02;;;;;;;95.05;90.20;;;;;;;20.73;31.78;97432.75;5054571;28;20185;-64
2022/07/18 00:38:28;;;;;;;58.17;55.30;;;;;;;20.81;31.20;97426.03;5072660;28;20578;-64
2022/07/18 00:40:53;;;;;;;64.05;60.72;;;;;;;20.83;31.51;97423.91;5072769;28;20715;-64
2022/07/18 00:43:18;;;;;;;21.92;20.55;;;;;;;20.87;30.18;97428.41;5072657;28;20213;-64
2022/07/18 00:45:49;;;;;;;22.70;21.38;;;;;;;20.91;30.44;97432.09;5072924;28;20192;-65
2022/07/18 00:48:14;;;;;;;16.83;15.95;;;;;;;20.90;30.63;97421.72;5072260;28;20220;-65
2022/07/18 00:50:41;;;;;;;19.77;18.75;;;;;;;20.87;30.20;97411.59;5075561;28;20189;-65
2022/07/18 00:53:07;;;;;;;17.05;16.13;;;;;;;20.73;30.94;97416.78;5058135;28;20238;-65
2022/07/18 00:55:33;;;;;;;19.13;18.15;;;;;;;20.73;30.67;97420.22;5076925;28;20229;-64
2022/07/18 00:57:59;;;;;;;16.25;15.15;;;;;;;20.68;31.45;97414.13;5076336;28;20189;-65
2022/07/18 01:03:09;;;;;;;459.67;437.95;;;;;;;20.33;32.96;97423.91;5075728;28;20189;-65
2022/07/18 01:05:34;;;;;;;484.15;461.02;;;;;;;20.38;33.33;97424.94;5076106;28;20189;-65
2022/07/18 01:07:59;;;;;;;275.60;262.80;;;;;;;20.17;34.17;97418.88;5076266;28;20193;-65
2022/07/18 01:10:25;;;;;;;113.32;107.75;;;;;;;19.85;34.71;97421.88;5076611;28;20197;-65
2022/07/18 01:12:50;;;;;;;68.95;65.38;;;;;;;19.88;35.09;97432.00;5074994;28;20181;-65
2022/07/18 01:15:16;;;;;;;92.88;88.22;;;;;;;19.71;35.29;97426.19;5075921;28;20192;-68
2022/07/18 01:17:41;;;;;;;107.03;101.68;;;;;;;19.73;35.19;97416.84;5075784;28;20193;-65
2022/07/18 01:20:07;;;;;;;112.22;106.68;;;;;;;19.85;35.20;97421.88;5075936;28;20208;-64
2022/07/18 01:22:33;;;;;;;78.57;74.47;;;;;;;19.96;35.06;97423.44;5075864;28;20181;-65
2022/07/18 01:24:58;;;;;;;40.20;38.10;;;;;;;19.79;35.46;97422.97;5075877;28;20235;-65
2022/07/18 01:27:24;;;;;;;18.67;17.75;;;;;;;19.69;35.71;97420.31;5075754;28;20188;-66
2022/07/18 01:29:51;;;;;;;24.90;23.60;;;;;;;19.63;35.94;97418.75;5076222;28;20188;-64
2022/07/18 01:32:17;;;;;;;52.05;49.30;;;;;;;19.50;36.27;97415.56;5075531;28;20186;-65
2022/07/18 01:34:44;;;;;;;97.50;92.45;;;;;;;19.46;36.46;97414.50;5075971;28;20683;-64
2022/07/18 01:37:10;;;;;;;190.85;181.27;;;;;;;19.49;36.52;97414.00;5057744;28;20263;-64
2022/07/18 01:39:35;;;;;;;269.73;256.30;;;;;;;19.35;36.85;97414.75;5075371;28;20237;-65
2022/07/18 01:42:07;;;;;;;312.15;296.27;;;;;;;19.16;37.51;97411.84;5075332;28;20188;-65
2022/07/18 01:44:35;;;;;;;298.27;283.20;;;;;;;19.31;37.55;97414.50;5075800;28;20230;-65
2022/07/18 01:47:01;;;;;;;181.82;172.65;;;;;;;19.31;37.89;97417.16;5075175;28;20177;-65
2022/07/18 01:49:29;;;;;;;56.83;53.83;;;;;;;19.26;38.67;97411.03;5075326;28;20189;-65
2022/07/18 01:51:55;;;;;;;20.08;18.98;;;;;;;19.08;40.64;97415.81;5074864;28;20603;-65
2022/07/18 01:54:22;;;;;;;61.70;58.22;;;;;;;19.29;40.80;97413.16;5074843;28;20284;-65
2022/07/18 01:56:48;;;;;;;262.67;249.73;;;;;;;19.05;41.87;97415.56;5075004;28;20192;-65
2022/07/18 01:59:13;;;;;;;401.30;380.42;;;;;;;19.08;42.38;97415.81;5074726;28;20295;-65
2022/07/18 02:01:39;;;;;;;456.00;432.20;;;;;;;19.16;42.59;97408.38;5074058;28;20180;-65
2022/07/18 02:04:04;;;;;;;321.65;305.42;;;;;;;18.89;43.64;97408.66;5075004;28;20227;-65
2022/07/18 02:06:30;;;;;;;89.53;84.82;;;;;;;18.74;44.40;97411.25;5075443;28;20181;-65
2022/07/18 02:08:55;;;;;;;23.45;22.00;;;;;;;18.69;45.11;97412.84;5075409;28;20200;-65
2022/07/18 02:11:21;;;;;;;37.78;35.80;;;;;;;18.70;45.86;97408.34;5074976;28;20181;-65
2022/07/18 02:13:46;;;;;;;31.90;30.17;;;;;;;18.58;46.76;97419.19;5057168;28;20197;-65
2022/07/18 02:16:11;;;;;;;73.07;69.28;;;;;;;18.71;46.56;97417.91;5074962;28;20640;-65
2022/07/18 02:18:37;;;;;;;112.88;106.85;;;;;;;18.74;46.48;97414.72;5074577;28;20205;-65
2022/07/18 02:21:02;;;;;;;107.32;101.78;;;;;;;18.62;46.87;97411.50;5075065;28;20197;-65
2022/07/18 02:23:28;;;;;;;127.20;120.55;;;;;;;18.51;47.42;97415.16;5074539;28;20268;-65
2022/07/18 02:25:54;;;;;;;208.15;197.65;;;;;;;18.35;48.17;97418.81;5074665;28;20185;-65
2022/07/18 02:28:20;;;;;;;280.38;265.95;;;;;;;18.42;47.87;97414.88;5075209;28;20238;-65
2022/07/18 02:30:47;;;;;;;299.53;284.23;;;;;;;18.41;48.10;97413.28;5074815;28;20193;-65
2022/07/18 02:33:13;;;;;;;310.92;295.13;;;;;;;18.46;48.19;97426.56;5074555;28;20188;-65
2022/07/18 02:35:39;;;;;;;333.42;316.58;;;;;;;18.54;48.00;97420.78;5074798;28;20181;-65
2022/07/18 02:38:04;;;;;;;274.70;260.15;;;;;;;18.61;47.99;97416.00;5074589;28;20509;-65
2022/07/18 02:40:29;;;;;;;168.38;159.70;;;;;;;18.67;47.40;97409.66;5074392;28;20272;-65
2022/07/18 02:42:55;;;;;;;74.90;70.95;;;;;;;18.64;47.64;97410.19;5074017;28;20234;-66
2022/07/18 02:45:20;;;;;;;47.55;44.88;;;;;;;18.55;47.69;97419.72;5072984;28;20264;-66
2022/07/18 02:47:45;;;;;;;77.28;73.13;;;;;;;18.37;48.31;97417.50;5074449;28;20181;-65
2022/07/18 02:50:11;;;;;;;98.40;92.70;;;;;;;18.49;47.90;97410.13;5073817;28;20193;-65
2022/07/18 02:52:38;;;;;;;91.17;86.23;;;;;;;18.50;47.38;97413.59;5073473;28;20189;-65
2022/07/18 02:55:05;;;;;;;72.78;68.70;;;;;;;18.49;47.18;97415.44;5073929;28;20239;-65
2022/07/18 02:57:30;;;;;;;58.75;55.63;;;;;;;18.44;47.39;97425.25;5074271;28;20181;-65
2022/07/18 02:59:55;;;;;;;35.00;33.03;;;;;;;18.48;47.61;97419.16;5073620;28;20205;-65
2022/07/18 03:02:21;;;;;;;38.88;36.85;;;;;;;18.27;48.01;97428.09;5073768;28;20213;-65
2022/07/18 03:04:46;;;;;;;38.67;36.53;;;;;;;18.41;47.98;97421.25;5055633;28;20633;-66
2022/07/18 03:07:12;;;;;;;51.83;48.92;;;;;;;18.29;48.41;97423.31;5074112;28;20264;-66
2022/07/18 03:09:37;;;;;;;86.37;81.80;;;;;;;18.31;48.41;97423.06;5074023;28;20666;-66
2022/07/18 03:12:03;;;;;;;141.07;133.67;;;;;;;18.38;48.32;97426.28;5073230;28;20185;-66
2022/07/18 03:14:28;;;;;;;135.05;128.07;;;;;;;18.45;48.36;97413.53;5073586;28;20180;-66
2022/07/18 03:16:54;;;;;;;126.37;119.70;;;;;;;18.18;49.00;97426.97;5074082;28;20181;-65
2022/07/18 03:19:20;;;;;;;144.67;137.13;;;;;;;18.25;48.97;97423.03;5072959;28;20300;-65
2022/07/18 03:21:45;;;;;;;125.87;118.97;;;;;;;18.02;49.43;97420.81;5073839;28;20318;-66
2022/07/18 03:24:11;;;;;;;111.70;105.82;;;;;;;18.12;49.68;97418.19;5073707;28;20271;-66
2022/07/18 03:26:37;;;;;;;102.95;97.47;;;;;;;17.97;50.63;97412.84;5073490;28;20177;-65
2022/07/18 03:29:03;;;;;;;72.47;68.57;;;;;;;18.08;50.68;97421.63;5073107;28;20184;-66
2022/07/18 03:31:28;;;;;;;50.72;47.92;;;;;;;17.92;51.52;97422.63;5073180;28;20193;-65
2022/07/18 03:33:53;;;;;;;47.53;45.03;;;;;;;17.82;51.95;97416.22;5072956;28;20177;-67
2022/07/18 03:36:19;;;;;;;53.37;50.47;;;;;;;17.93;51.96;97426.88;5073193;28;20189;-66
2022/07/18 03:38:44;;;;;;;79.13;74.90;;;;;;;17.81;52.65;97422.56;5073355;28;20181;-66
2022/07/18 03:41:10;;;;;;;80.77;76.37;;;;;;;17.89;52.28;97426.56;5073394;28;20658;-65
2022/07/18 03:43:39;;;;;;;82.50;78.13;;;;;;;17.94;52.24;97421.31;5073064;28;20658;-65
2022/07/18 03:46:05;;;;;;;73.75;69.88;;;;;;;17.90;52.72;97427.38;5072986;28;20193;-65
2022/07/18 03:48:31;;;;;;;56.23;53.30;;;;;;;18.12;52.16;97428.00;5072996;28;20181;-66
2022/07/18 03:50:56;;;;;;;42.97;40.70;;;;;;;17.97;52.93;97420.00;5054907;28;20192;-66
2022/07/18 03:53:21;;;;;;;41.93;39.63;;;;;;;18.06;52.82;97426.38;5072542;28;20181;-65
2022/07/18 03:55:47;;;;;;;50.13;47.50;;;;;;;18.08;52.70;97422.44;5073446;28;20256;-66
2022/07/18 03:58:12;;;;;;;38.00;35.97;;;;;;;18.32;52.39;97425.47;5073122;28;20978;-66
2022/07/18 04:00:38;;;;;;;39.88;37.72;;;;;;;18.35;52.55;97424.94;5072746;28;20205;-66
2022/07/18 04:03:03;;;;;;;53.65;50.70;;;;;;;18.37;52.63;97422.81;5072896;28;20181;-66
2022/07/18 04:05:29;;;;;;;63.88;60.25;;;;;;;18.16;53.01;97416.66;5073071;28;20629;-66
2022/07/18 04:07:54;;;;;;;60.55;57.22;;;;;;;18.59;52.04;97415.50;5072974;28;20612;-65
2022/07/18 04:10:20;;;;;;;45.95;43.50;;;;;;;18.56;52.03;97417.84;5072926;28;20189;-65
2022/07/18 04:12:51;;;;;;;37.92;35.75;;;;;;;18.66;51.81;97410.72;5073066;28;20242;-66
2022/07/18 04:15:18;;;;;;;28.77;27.17;;;;;;;18.74;51.42;97419.22;5072577;28;20270;-66
2022/07/18 04:17:44;;;;;;;30.55;28.60;;;;;;;18.97;50.98;97418.72;5070458;28;20699;-66
2022/07/18 04:20:10;;;;;;;30.75;29.05;;;;;;;18.90;51.20;97412.88;5072776;28;20236;-66
2022/07/18 04:22:50;;;;;;;33.17;31.45;;;;;;;18.99;51.21;97417.41;5072751;28;20189;-67
2022/07/18 04:25:17;;;;;;;36.45;34.47;;;;;;;19.21;50.67;97421.69;5054526;28;20197;-66
2022/07/18 04:27:43;;;;;;;32.35;30.67;;;;;;;19.25;50.87;97423.53;5056900;28;20688;-66
2022/07/18 04:30:09;;;;;;;36.15;34.28;;;;;;;19.30;51.02;97423.53;5072788;28;20189;-66
2022/07/18 04:32:34;;;;;;;30.58;28.95;;;;;;;19.10;51.36;97418.22;5072564;28;20185;-66
2022/07/18 04:34:59;;;;;;;26.63;25.20;;;;;;;19.11;51.71;97425.91;5072688;28;20181;-66
2022/07/18 04:37:25;;;;;;;26.83;24.73;;;;;;;19.31;50.70;97419.00;5072311;28;20288;-66
2022/07/18 04:39:50;;;;;;;27.70;26.15;;;;;;;19.18;51.08;97422.19;5072439;28;20197;-66
2022/07/18 04:42:15;;;;;;;28.40;26.45;;;;;;;19.58;50.25;97421.41;5072358;28;20276;-66
2022/07/18 04:44:41;;;;;;;22.60;21.40;;;;;;;19.66;50.40;97419.03;5072947;28;20235;-66
2022/07/18 04:47:06;;;;;;;22.17;20.95;;;;;;;19.98;49.22;97415.22;5071873;28;20185;-66
2022/07/18 04:49:31;;;;;;;25.33;23.88;;;;;;;19.84;49.40;97410.44;5072850;28;20181;-66
2022/07/18 04:51:57;;;;;;;23.67;22.25;;;;;;;19.72;50.12;97420.59;5071998;28;20188;-66
2022/07/18 04:54:22;;;;;;;20.80;19.45;;;;;;;20.14;48.92;97414.09;5072246;28;20220;-66
2022/07/18 04:56:48;;;;;;;25.08;23.33;;;;;;;20.06;49.00;97412.00;5072218;28;20189;-65
2022/07/18 04:59:13;;;;;;;24.40;22.77;;;;;;;20.14;49.27;97417.53;5072535;28;20673;-65
2022/07/18 05:01:38;;;;;;;42.97;40.35;;;;;;;20.12;49.38;97421.53;5053833;28;20212;-67
2022/07/18 05:04:04;;;;;;;83.45;79.13;;;;;;;20.60;48.04;97428.03;5071542;28;20169;-65
2022/07/18 05:06:29;;;;;;;72.75;68.88;;;;;;;20.71;47.71;97425.03;5072230;28;20333;-65
2022/07/18 05:08:55;;;;;;;286.02;270.02;;;;;;;21.22;46.65;97421.25;5072627;28;20221;-66
2022/07/18 05:11:20;;;;;;;541.88;509.50;;;;;;;21.50;46.00;97415.16;5072353;28;20181;-65
2022/07/18 05:13:45;;;;;;;552.40;521.65;;;;;;;21.59;45.67;97416.13;5071980;28;20219;-66
2022/07/18 05:16:11;;;;;;;480.35;454.77;;;;;;;22.17;44.54;97416.09;5071406;28;20222;-65
2022/07/18 05:18:36;;;;;;;479.15;454.90;;;;;;;22.40;43.88;97412.59;5071427;28;20195;-66
2022/07/18 05:21:01;;;;;;;465.02;442.13;;;;;;;22.84;42.81;97406.94;5072331;28;20550;-65
2022/07/18 05:23:27;;;;;;;390.38;371.27;;;;;;;22.45;43.11;97414.41;5071785;28;20185;-65
2022/07/18 05:25:52;;;;;;;387.70;368.42;;;;;;;22.74;42.72;97412.41;5071556;28;20262;-65
2022/07/18 05:28:18;;;;;;;390.95;371.67;;;;;;;23.17;42.16;97411.25;5072120;28;20182;-65
2022/07/18 05:30:43;;;;;;;401.00;381.55;;;;;;;22.80;43.60;97406.69;5072319;28;20204;-64
2022/07/18 05:33:08;;;;;;;330.20;314.08;;;;;;;22.80;43.19;97409.38;5071961;28;20189;-65
2022/07/18 05:35:34;;;;;;;321.05;305.23;;;;;;;22.63;43.34;97413.59;5073032;28;20553;-65
2022/07/18 05:37:59;;;;;;;281.15;267.15;;;;;;;23.15;41.60;97409.94;5075469;28;20234;-65
2022/07/18 05:40:26;;;;;;;279.30;265.42;;;;;;;23.07;42.05;97408.69;5075655;28;20607;-65
2022/07/18 05:42:51;;;;;;;252.77;240.25;;;;;;;23.54;41.79;97415.72;5075095;28;20638;-65
2022/07/18 05:45:17;;;;;;;233.07;221.43;;;;;;;23.57;42.08;97425.06;5075911;28;20268;-65
2022/07/18 05:47:42;;;;;;;198.05;187.88;;;;;;;23.83;41.09;97422.72;5075588;28;20181;-65
2022/07/18 05:50:08;;;;;;;178.45;169.48;;;;;;;23.90;40.89;97425.81;5074520;28;20192;-66
2022/07/18 05:52:34;;;;;;;147.00;139.55;;;;;;;23.93;40.53;97422.53;5075230;28;20248;-65
2022/07/18 05:55:00;;;;;;;190.88;181.50;;;;;;;23.99;40.20;97419.47;5074799;28;20688;-65
2022/07/18 05:57:25;;;;;;;422.58;399.85;;;;;;;23.96;40.27;97421.94;5075344;28;20201;-65
2022/07/18 05:59:51;;;;;;;689.08;646.63;;;;;;;23.70;40.18;97418.94;5074806;28;20570;-64
2022/07/18 06:02:16;;;;;;;756.38;709.13;;;;;;;23.95;39.34;97423.03;5074726;28;20185;-65
2022/07/18 06:04:41;;;;;;;762.78;715.60;;;;;;;24.26;39.28;97424.03;5075433;28;20536;-65
2022/07/18 06:07:07;;;;;;;769.08;721.42;;;;;;;24.13;39.66;97426.72;5075392;28;20629;-65
2022/07/18 06:09:33;;;;;;;757.38;710.58;;;;;;;24.18;39.49;97426.66;5075468;28;20196;-65
2022/07/18 06:11:59;;;;;;;763.92;717.67;;;;;;;24.33;38.75;97429.81;5075530;28;20268;-65
2022/07/18 06:14:29;;;;;;;788.85;739.90;;;;;;;24.46;38.70;97420.19;5074968;28;20645;-65
2022/07/18 06:16:54;;;;;;;770.70;724.10;;;;;;;24.31;39.50;97425.81;5074066;28;20193;-66
2022/07/18 06:19:20;;;;;;;739.90;696.30;;;;;;;24.41;39.62;97423.72;5074875;28;20192;-64
2022/07/18 06:21:45;;;;;;;737.15;693.67;;;;;;;24.59;39.36;97427.38;5075120;28;20541;-65
2022/07/18 06:24:11;;;;;;;731.45;688.47;;;;;;;24.60;39.64;97426.28;5074467;28;20195;-65
2022/07/18 06:26:36;;;;;;;743.92;699.72;;;;;;;24.45;39.74;97421.25;5074758;28;20220;-65
2022/07/18 06:29:01;;;;;;;783.40;735.58;;;;;;;24.95;38.72;97427.44;5074979;28;20264;-65
2022/07/18 06:31:27;;;;;;;808.03;758.90;;;;;;;24.69;38.83;97426.34;5074595;28;20196;-65
2022/07/18 06:33:52;;;;;;;578.92;545.40;;;;;;;24.91;38.76;97422.97;5073835;28;20173;-65
2022/07/18 06:36:17;;;;;;;435.88;411.33;;;;;;;25.00;37.27;97421.16;5074420;28;20254;-65
2022/07/18 06:38:43;;;;;;;287.13;271.77;;;;;;;25.16;36.28;97428.53;5073931;28;20196;-65
2022/07/18 06:41:08;;;;;;;182.65;173.13;;;;;;;25.22;35.94;97426.53;5073577;28;20621;-65
2022/07/18 06:43:37;;;;;;;172.20;163.45;;;;;;;25.29;36.30;97426.09;5074005;28;20200;-65
2022/07/18 06:46:02;;;;;;;142.00;134.80;;;;;;;25.46;35.88;97426.22;5072951;28;20181;-65
2022/07/18 06:48:32;;;;;;;152.05;144.35;;;;;;;25.51;35.67;97421.53;5072683;28;20188;-65
2022/07/18 06:50:58;;;;;;;138.27;131.10;;;;;;;25.67;35.32;97422.75;5056113;28;20199;-65
2022/07/18 06:53:23;;;;;;;114.55;108.65;;;;;;;25.58;35.03;97423.78;5074566;28;20638;-65
2022/07/18 06:55:49;;;;;;;109.35;103.82;;;;;;;25.61;35.20;97433.91;5073016;28;20224;-65
2022/07/18 06:58:14;;;;;;;111.10;105.10;;;;;;;25.97;34.57;97431.09;5052674;28;20216;-65
2022/07/18 07:00:39;;;;;;;104.13;98.88;;;;;;;26.06;34.35;97421.97;5072644;28;20205;-63
2022/07/18 07:03:05;;;;;;;78.85;74.65;;;;;;;26.12;34.10;97425.31;5071965;28;20189;-65
2022/07/18 07:05:30;;;;;;;58.88;55.80;;;;;;;26.19;33.45;97425.66;5073533;28;20181;-62
2022/07/18 07:07:56;;;;;;;46.55;43.70;;;;;;;26.21;33.52;97425.31;5073442;28;20193;-63
2022/07/18 07:10:21;;;;;;;52.75;49.80;;;;;;;26.18;33.65;97425.97;5073028;28;20700;-62
2022/07/18 07:12:49;;;;;;;97.32;92.30;;;;;;;25.90;34.42;97422.69;5073279;28;20188;-63
2022/07/18 07:15:18;;;;;;;227.80;217.20;;;;;;;25.91;35.02;97413.53;5073333;28;20181;-63
2022/07/18 07:17:44;;;;;;;262.65;250.48;;;;;;;26.06;35.17;97418.50;5072173;28;20189;-62
2022/07/18 07:20:10;;;;;;;223.15;212.35;;;;;;;26.18;34.95;97420.59;5055696;28;20608;-62
2022/07/18 07:22:44;;;;;;;212.27;202.40;;;;;;;26.29;34.60;97417.34;5073198;28;20191;-63
2022/07/18 07:25:10;;;;;;;211.50;201.45;;;;;;;26.41;34.36;97417.53;5072367;28;20567;-63
2022/07/18 07:27:35;;;;;;;224.82;214.45;;;;;;;26.49;34.36;97415.94;5072791;28;20193;-63
2022/07/18 07:30:00;;;;;;;212.82;202.80;;;;;;;26.31;34.26;97417.00;5072325;28;20220;-63
2022/07/18 07:32:26;;;;;;;233.98;222.82;;;;;;;26.39;34.07;97414.34;5072397;28;20227;-63
2022/07/18 07:34:51;;;;;;;300.55;286.52;;;;;;;26.54;34.49;97404.25;5072871;28;20206;-63
2022/07/18 07:37:16;;;;;;;221.85;211.05;;;;;;;26.53;35.35;97411.50;5072709;28;20251;-62
2022/07/18 07:39:42;;;;;;;174.88;166.52;;;;;;;26.68;33.51;97411.09;5072151;28;20211;-63
2022/07/18 07:42:07;;;;;;;84.47;79.47;;;;;;;26.72;32.92;97412.03;5072721;28;20201;-65
2022/07/18 07:44:33;;;;;;;81.05;76.68;;;;;;;26.92;32.92;97399.88;5072540;28;20181;-63
2022/07/18 07:46:59;;;;;;;52.40;48.65;;;;;;;27.25;31.54;97402.88;5073002;28;20633;-62
2022/07/18 07:49:25;;;;;;;55.35;52.40;;;;;;;27.04;32.54;97410.00;5071692;28;20178;-63
2022/07/18 07:51:50;;;;;;;56.95;53.85;;;;;;;27.25;31.54;97414.41;5072253;28;20192;-63
2022/07/18 07:54:16;;;;;;;61.65;58.47;;;;;;;27.27;31.17;97408.72;5072173;28;20273;-63
2022/07/18 07:56:41;;;;;;;53.35;50.53;;;;;;;27.32;32.16;97405.84;5073153;28;20617;-64
2022/07/18 07:59:06;;;;;;;43.38;40.67;;;;;;;27.27;31.05;97408.72;5072455;28;20200;-63
2022/07/18 08:01:32;;;;;;;28.15;26.65;;;;;;;27.32;29.83;97411.25;5072867;28;20196;-63
2022/07/18 08:03:58;;;;;;;33.92;32.03;;;;;;;27.55;30.64;97401.09;5072322;28;20227;-63
2022/07/18 08:06:23;;;;;;;32.10;30.27;;;;;;;27.34;30.90;97405.53;5072919;28;20239;-63
2022/07/18 08:08:49;;;;;;;24.27;22.95;;;;;;;27.73;30.78;97404.53;5072587;28;20177;-63
2022/07/18 08:11:14;;;;;;;24.27;23.05;;;;;;;27.59;30.83;97393.94;5072918;28;20177;-64
2022/07/18 08:13:40;;;;;;;21.92;20.70;;;;;;;27.82;30.72;97399.88;5072261;28;20246;-64
2022/07/18 08:16:05;;;;;;;28.75;27.23;;;;;;;27.82;31.18;97392.59;5072418;28;20177;-64
2022/07/18 08:18:31;;;;;;;21.80;20.40;;;;;;;28.00;30.92;97394.13;5071004;28;20231;-64
2022/07/18 08:20:56;;;;;;;24.23;22.80;;;;;;;27.54;31.80;97392.22;5072195;28;20209;-63
2022/07/18 08:23:21;;;;;;;19.55;18.52;;;;;;;27.35;31.68;97402.53;5072063;28;20254;-64
2022/07/18 08:25:47;;;;;;;18.50;17.38;;;;;;;27.42;32.25;97399.38;5038157;28;20192;-63
2022/07/18 08:28:13;;;;;;;20.48;19.27;;;;;;;27.85;31.12;97400.06;5071909;28;20641;-64
2022/07/18 08:30:39;;;;;;;23.80;22.40;;;;;;;27.78;30.08;97397.06;5065580;28;20273;-64
2022/07/18 08:33:06;;;;;;;19.20;18.00;;;;;;;28.20;30.44;97397.22;5071697;28;20578;-64
2022/07/18 08:35:32;;;;;;;27.20;25.60;;;;;;;28.27;30.22;97400.19;5071987;28;20552;-63
2022/07/18 08:37:58;;;;;;;60.22;57.17;;;;;;;28.13;29.69;97397.75;5071804;28;20730;-63
2022/07/18 08:40:24;;;;;;;72.55;68.95;;;;;;;27.85;29.89;97397.34;5072186;28;20742;-63
2022/07/18 08:42:52;;;;;;;25.05;23.77;;;;;;;27.87;32.47;97397.00;5072104;28;20264;-63
2022/07/18 08:45:21;;;;;;;15.13;14.15;;;;;;;27.31;32.83;97393.50;5055049;28;20196;-62
2022/07/18 08:47:47;;;;;;;18.08;17.08;;;;;;;27.86;32.07;97401.63;5071768;28;20668;-64
2022/07/18 08:50:12;;;;;;;15.63;14.82;;;;;;;28.00;32.59;97399.50;5071868;28;20223;-62
2022/07/18 08:52:39;;;;;;;20.88;19.30;;;;;;;28.17;31.09;97398.66;5072021;28;20189;-63
2022/07/18 08:55:06;;;;;;;22.02;20.88;;;;;;;28.11;31.37;97398.03;5071819;28;20720;-63
2022/07/18 08:57:32;;;;;;;21.60;20.00;;;;;;;28.33;30.46;97405.06;5072691;28;20228;-63
2022/07/18 08:59:57;;;;;;;30.85;28.98;;;;;;;28.68;30.00;97397.56;5054329;28;20682;-63
2022/07/18 09:02:27;;;;;;;23.38;22.00;;;;;;;28.54;31.95;97397.00;5072001;28;20181;-63
2022/07/18 09:04:53;;;;;;;24.75;23.33;;;;;;;28.25;31.66;97405.13;5072178;28;20189;-63
2022/07/18 09:07:27;;;;;;;33.45;31.48;;;;;;;28.33;31.39;97406.97;5072237;28;20177;-63
2022/07/18 09:09:56;;;;;;;34.13;32.28;;;;;;;27.69;31.74;97405.19;5072315;28;20184;-63
2022/07/18 09:12:21;;;;;;;63.03;59.85;;;;;;;27.90;30.64;97407.94;5076138;28;20189;-63
2022/07/18 09:14:48;;;;;;;95.88;91.25;;;;;;;28.33;30.01;97413.16;5076153;28;20178;-64
2022/07/18 09:17:22;;;;;;;104.82;99.68;;;;;;;28.27;28.52;97410.97;5074693;28;20228;-63
2022/07/18 09:20:05;;;;;;;161.68;153.55;;;;;;;28.49;30.48;97405.28;5075868;28;20279;-63
2022/07/18 09:22:32;;;;;;;92.85;88.15;;;;;;;28.19;30.94;97409.91;5075914;28;20216;-63
2022/07/18 09:25:06;;;;;;;107.88;102.53;;;;;;;28.38;30.41;97412.19;5075640;28;20188;-63
2022/07/18 09:27:35;;;;;;;106.95;101.72;;;;;;;28.77;28.32;97413.69;5075848;28;20186;-63
2022/07/18 09:30:35;;;;;;;109.03;103.63;;;;;;;28.97;28.14;97410.22;5075421;28;20189;-63
2022/07/18 09:33:03;;;;;;;112.78;107.07;;;;;;;28.38;29.87;97401.41;5070781;28;20185;-63
2022/07/18 09:35:33;;;;;;;106.53;101.20;;;;;;;27.70;30.19;97400.56;5074854;28;20181;-64
2022/07/18 09:38:00;;;;;;;121.75;115.70;;;;;;;27.80;28.80;97402.94;5060247;28;20597;-63
2022/07/18 09:40:29;;;;;;;158.35;150.63;;;;;;;27.89;29.07;97405.56;5075476;28;20296;-62
2022/07/18 09:42:57;;;;;;;162.23;154.45;;;;;;;27.95;26.86;97401.59;5075271;28;20185;-63
2022/07/18 09:45:25;;;;;;;169.40;161.02;;;;;;;27.87;28.44;97402.41;5075141;28;20181;-63
2022/07/18 09:47:59;;;;;;;162.00;154.15;;;;;;;28.42;28.17;97392.31;5075181;28;20193;-63
2022/07/18 09:50:29;;;;;;;224.57;213.93;;;;;;;28.23;27.01;97399.25;5074918;28;20177;-63
2022/07/18 09:53:05;;;;;;;209.43;199.35;;;;;;;28.37;27.00;97395.22;5074785;28;20181;-63
2022/07/18 09:55:31;;;;;;;253.10;241.15;;;;;;;28.18;26.80;97396.75;5074816;28;20704;-63
2022/07/18 09:58:06;;;;;;;294.65;280.55;;;;;;;27.68;27.21;97397.41;5075399;28;20185;-63
2022/07/18 10:00:35;;;;;;;293.10;279.15;;;;;;;27.87;27.33;97392.41;5075321;28;20200;-63
2022/07/18 10:03:02;;;;;;;258.63;246.15;;;;;;;28.26;26.64;97395.91;5074912;28;20537;-63
2022/07/18 10:05:33;;;;;;;276.55;263.13;;;;;;;27.93;27.02;97390.34;5074355;28;20235;-64
2022/07/18 10:08:04;;;;;;;288.95;275.23;;;;;;;28.02;27.24;97394.59;5074099;28;20177;-63
2022/07/18 10:10:31;;;;;;;284.40;270.77;;;;;;;28.33;26.55;97398.88;5075163;28;20195;-63
2022/07/18 10:12:58;;;;;;;276.25;263.05;;;;;;;28.65;25.60;97398.19;5074834;28;20201;-63
2022/07/18 10:15:27;;;;;;;220.63;209.88;;;;;;;28.71;25.75;97388.78;5075101;28;20269;-64
2022/07/18 10:17:53;;;;;;;212.93;202.63;;;;;;;28.77;25.32;97390.22;5062870;28;20223;-63
2022/07/18 10:20:44;;;;;;;147.27;139.93;;;;;;;28.67;24.45;97384.38;5074531;28;20658;-63
2022/07/18 10:23:21;;;;;;;134.32;127.72;;;;;;;28.67;24.46;97389.78;5073868;28;20202;-64
2022/07/18 10:26:05;;;;;;;140.68;133.75;;;;;;;28.78;23.68;97388.31;5063570;28;20185;-64
2022/07/18 10:28:31;;;;;;;231.80;220.63;;;;;;;28.70;23.53;97389.13;5070214;28;20181;-63
2022/07/18 10:31:14;;;;;;;329.60;313.30;;;;;;;28.94;23.30;97378.47;5074627;28;20185;-63
2022/07/18 10:33:48;;;;;;;528.75;501.33;;;;;;;28.81;23.24;97391.13;5074008;28;20268;-63
2022/07/18 10:36:21;;;;;;;555.85;526.90;;;;;;;28.39;23.85;97390.28;5073700;28;20276;-63
2022/07/18 10:39:10;;;;;;;458.55;435.25;;;;;;;28.28;24.21;97394.47;5074581;28;20192;-63
2022/07/18 10:41:39;;;;;;;485.48;460.95;;;;;;;28.19;24.50;97387.56;5073915;28;20229;-63
2022/07/18 10:44:23;;;;;;;436.85;415.05;;;;;;;28.21;25.47;97388.00;5074435;28;20190;-63
2022/07/18 10:47:03;;;;;;;224.15;213.48;;;;;;;28.51;24.70;97379.59;5073962;28;20192;-63
2022/07/18 10:49:52;;;;;;;117.70;111.75;;;;;;;28.84;25.17;97385.06;5072459;28;20185;-63
2022/07/18 10:52:29;;;;;;;172.55;164.18;;;;;;;28.81;24.54;97384.97;5072187;28;20203;-63
2022/07/18 10:55:15;;;;;;;360.67;342.65;;;;;;;28.38;24.18;97380.59;5073563;28;20294;-63
2022/07/18 10:57:41;;;;;;;348.75;331.50;;;;;;;28.52;24.61;97380.38;5074493;28;20162;-63
2022/07/18 11:00:11;;;;;;;435.20;413.15;;;;;;;27.98;25.20;97380.16;5073563;28;20233;-63
2022/07/18 11:03:04;;;;;;;237.60;226.10;;;;;;;28.18;25.54;97378.69;5072999;28;20602;-64
2022/07/18 11:05:30;;;;;;;220.75;210.25;;;;;;;28.33;25.22;97377.31;5073261;28;20268;-63
2022/07/18 11:08:01;;;;;;;195.50;186.23;;;;;;;28.47;25.28;97375.19;5073551;28;20272;-63
2022/07/18 11:10:45;;;;;;;215.95;205.68;;;;;;;28.60;25.08;97370.63;5073588;28;20646;-63
2022/07/18 11:13:29;;;;;;;386.40;367.20;;;;;;;27.84;25.29;97368.03;5073557;28;20200;-63